CDC5927 ZPPP-ZYHB
Flight info
| Callsign | CDC5927 |
|---|---|
| Flight time | 4h 10m |
| Altitude | 35100 |
| Route | DADOL W144 IGNAK W179 WFX W81 APIMI W275 NSH G212 SOTMU B339 HUR B334 TGO G212 RUSBO W203 PIGAM |
| Aircraft | A21N/M-SDE2E3FGHIRWXY/LB1 |
Departure
| Time | 2026-04-23 06:13 |
|---|---|
| Airport | Kunming Changshui International Airport (ZPPP) |
Arrival
| Time | 2026-04-23 10:23 |
|---|---|
| Airport | Harbin Taiping International Airport (ZYHB) |
| Time | Latitude | Longitude | Altitude | Speed | Heading |
|---|---|---|---|---|---|
| 2026-04-23 05:23 | 25.10222 | 102.93297 | 6902 ft | 0 kts | 12° |
| 2026-04-23 05:58 | 25.10218 | 102.93296 | 6902 ft | 3 kts | 12° |
| 2026-04-23 05:59 | 25.10192 | 102.93290 | 6902 ft | 4 kts | 12° |
| 2026-04-23 05:59 | 25.10169 | 102.93285 | 6902 ft | 4 kts | 17° |
| 2026-04-23 05:59 | 25.10153 | 102.93273 | 6902 ft | 4 kts | 87° |
| 2026-04-23 05:59 | 25.10160 | 102.93247 | 6903 ft | 4 kts | 109° |
| 2026-04-23 06:00 | 25.10163 | 102.93235 | 6902 ft | 0 kts | 101° |
| 2026-04-23 06:02 | 25.10154 | 102.93293 | 6902 ft | 18 kts | 99° |
| 2026-04-23 06:03 | 25.10120 | 102.93436 | 6901 ft | 22 kts | 98° |
| 2026-04-23 06:03 | 25.10141 | 102.93500 | 6900 ft | 13 kts | 43° |
| 2026-04-23 06:03 | 25.10263 | 102.93611 | 6900 ft | 31 kts | 37° |
| 2026-04-23 06:03 | 25.10437 | 102.93756 | 6899 ft | 32 kts | 37° |
| 2026-04-23 06:04 | 25.10552 | 102.93854 | 6899 ft | 0 kts | 37° |
| 2026-04-23 06:04 | 25.10579 | 102.93857 | 6899 ft | 11 kts | 349° |
| 2026-04-23 06:04 | 25.10637 | 102.93791 | 6899 ft | 13 kts | 312° |
| 2026-04-23 06:04 | 25.10698 | 102.93711 | 6900 ft | 14 kts | 307° |
| 2026-04-23 06:05 | 25.10758 | 102.93623 | 6901 ft | 15 kts | 308° |
| 2026-04-23 06:05 | 25.10827 | 102.93528 | 6902 ft | 17 kts | 309° |
| 2026-04-23 06:05 | 25.10907 | 102.93419 | 6908 ft | 20 kts | 309° |
| 2026-04-23 06:05 | 25.10998 | 102.93293 | 6910 ft | 22 kts | 308° |
| 2026-04-23 06:06 | 25.11100 | 102.93150 | 6909 ft | 25 kts | 307° |
| 2026-04-23 06:06 | 25.11214 | 102.92992 | 6917 ft | 28 kts | 310° |
| 2026-04-23 06:06 | 25.11289 | 102.92893 | 6917 ft | 5 kts | 331° |
| 2026-04-23 06:06 | 25.11332 | 102.92903 | 6911 ft | 8 kts | 34° |
| 2026-04-23 06:07 | 25.11384 | 102.92948 | 6909 ft | 11 kts | 39° |
| 2026-04-23 06:07 | 25.11452 | 102.93008 | 6908 ft | 14 kts | 38° |
| 2026-04-23 06:07 | 25.11539 | 102.93083 | 6919 ft | 20 kts | 37° |
| 2026-04-23 06:07 | 25.11677 | 102.93202 | 6910 ft | 30 kts | 38° |
| 2026-04-23 06:08 | 25.11870 | 102.93368 | 6906 ft | 40 kts | 37° |
| 2026-04-23 06:08 | 25.12055 | 102.93504 | 6916 ft | 14 kts | 37° |
| 2026-04-23 06:08 | 25.12140 | 102.93602 | 6916 ft | 26 kts | 42° |
| 2026-04-23 06:08 | 25.12287 | 102.93728 | 6910 ft | 27 kts | 40° |
| 2026-04-23 06:09 | 25.12436 | 102.93862 | 6906 ft | 28 kts | 38° |
| 2026-04-23 06:09 | 25.12590 | 102.93993 | 6903 ft | 29 kts | 37° |
| 2026-04-23 06:09 | 25.12750 | 102.94129 | 6902 ft | 30 kts | 38° |
| 2026-04-23 06:09 | 25.12883 | 102.94247 | 6901 ft | 19 kts | 39° |
| 2026-04-23 06:10 | 25.12907 | 102.94268 | 6901 ft | 1 kts | 36° |
| 2026-04-23 06:10 | 25.12918 | 102.94276 | 6901 ft | 3 kts | 30° |
| 2026-04-23 06:10 | 25.12941 | 102.94282 | 6901 ft | 4 kts | 350° |
| 2026-04-23 06:10 | 25.12965 | 102.94262 | 6901 ft | 5 kts | 308° |
| 2026-04-23 06:11 | 25.12988 | 102.94229 | 6901 ft | 6 kts | 307° |
| 2026-04-23 06:11 | 25.13013 | 102.94191 | 6899 ft | 7 kts | 307° |
| 2026-04-23 06:11 | 25.13015 | 102.94143 | 6899 ft | 8 kts | 215° |
| 2026-04-23 06:11 | 25.12980 | 102.94094 | 6899 ft | 9 kts | 222° |
| 2026-04-23 06:12 | 25.12893 | 102.94016 | 6900 ft | 43 kts | 218° |
| 2026-04-23 06:12 | 25.12447 | 102.93636 | 6910 ft | 116 kts | 216° |
| 2026-04-23 06:12 | 25.10600 | 102.92048 | 7105 ft | 196 kts | 218° |
| 2026-04-23 06:13 | 25.09581 | 102.91075 | 7694 ft | 203 kts | 225° |
| 2026-04-23 06:13 | 25.08620 | 102.89851 | 8156 ft | 217 kts | 235° |
| 2026-04-23 06:13 | 25.07797 | 102.88551 | 9097 ft | 197 kts | 236° |
| 2026-04-23 06:13 | 25.07034 | 102.87349 | 9975 ft | 188 kts | 236° |
| 2026-04-23 06:14 | 25.06274 | 102.86181 | 10618 ft | 186 kts | 235° |
| 2026-04-23 06:14 | 25.05513 | 102.85029 | 11217 ft | 186 kts | 236° |
| 2026-04-23 06:14 | 25.04749 | 102.83873 | 11849 ft | 187 kts | 236° |
| 2026-04-23 06:14 | 25.03979 | 102.82714 | 12438 ft | 188 kts | 236° |
| 2026-04-23 06:15 | 25.03202 | 102.81547 | 13047 ft | 190 kts | 235° |
| 2026-04-23 06:15 | 25.02415 | 102.80369 | 13660 ft | 192 kts | 236° |
| 2026-04-23 06:15 | 25.01627 | 102.79189 | 14239 ft | 194 kts | 236° |
| 2026-04-23 06:15 | 25.00823 | 102.77981 | 14783 ft | 199 kts | 236° |
| 2026-04-23 06:16 | 24.99970 | 102.76694 | 15044 ft | 216 kts | 237° |
| 2026-04-23 06:16 | 24.99053 | 102.75315 | 15304 ft | 230 kts | 237° |
| 2026-04-23 06:16 | 24.98138 | 102.73819 | 15502 ft | 242 kts | 244° |
| 2026-04-23 06:16 | 24.97633 | 102.72024 | 15707 ft | 251 kts | 265° |
| 2026-04-23 06:17 | 24.97768 | 102.70071 | 15939 ft | 265 kts | 286° |
| 2026-04-23 06:17 | 24.98589 | 102.68188 | 16223 ft | 280 kts | 299° |
| 2026-04-23 06:17 | 24.99644 | 102.66390 | 16723 ft | 285 kts | 300° |
| 2026-04-23 06:17 | 25.00726 | 102.64557 | 17301 ft | 286 kts | 300° |
| 2026-04-23 06:18 | 25.01803 | 102.62707 | 17905 ft | 288 kts | 299° |
| 2026-04-23 06:18 | 25.02896 | 102.60828 | 18300 ft | 296 kts | 300° |
| 2026-04-23 06:18 | 25.04046 | 102.58878 | 18509 ft | 310 kts | 300° |
| 2026-04-23 06:18 | 25.05336 | 102.56888 | 18682 ft | 328 kts | 307° |
| 2026-04-23 06:19 | 25.07029 | 102.55102 | 18853 ft | 348 kts | 319° |
| 2026-04-23 06:19 | 25.09173 | 102.53719 | 19016 ft | 368 kts | 332° |
| 2026-04-23 06:19 | 25.11700 | 102.52919 | 19186 ft | 390 kts | 347° |
| 2026-04-23 06:19 | 25.14439 | 102.52865 | 19340 ft | 411 kts | 1° |
| 2026-04-23 06:20 | 25.17316 | 102.53318 | 19512 ft | 424 kts | 4° |
| 2026-04-23 06:20 | 25.20260 | 102.53841 | 19741 ft | 432 kts | 4° |
| 2026-04-23 06:20 | 25.23246 | 102.54352 | 20108 ft | 436 kts | 4° |
| 2026-04-23 06:20 | 25.26255 | 102.54844 | 20534 ft | 438 kts | 3° |
| 2026-04-23 06:21 | 25.29276 | 102.55327 | 20982 ft | 440 kts | 3° |
| 2026-04-23 06:21 | 25.32315 | 102.55808 | 21444 ft | 442 kts | 3° |
| 2026-04-23 06:21 | 25.35372 | 102.56289 | 21853 ft | 444 kts | 2° |
| 2026-04-23 06:21 | 25.38442 | 102.56773 | 22273 ft | 448 kts | 2° |
| 2026-04-23 06:22 | 25.41492 | 102.57255 | 22719 ft | 451 kts | 3° |
| 2026-04-23 06:22 | 25.44609 | 102.57747 | 23110 ft | 453 kts | 3° |
| 2026-04-23 06:22 | 25.47734 | 102.58240 | 23519 ft | 456 kts | 3° |
| 2026-04-23 06:22 | 25.50880 | 102.58738 | 23846 ft | 458 kts | 2° |
| 2026-04-23 06:23 | 25.54049 | 102.59239 | 24103 ft | 462 kts | 2° |
| 2026-04-23 06:23 | 25.57237 | 102.59743 | 24391 ft | 465 kts | 2° |
| 2026-04-23 06:23 | 25.60454 | 102.60249 | 24692 ft | 468 kts | 1° |
| 2026-04-23 06:23 | 25.63689 | 102.60756 | 24968 ft | 471 kts | 1° |
| 2026-04-23 06:24 | 25.66903 | 102.61265 | 25305 ft | 474 kts | 1° |
| 2026-04-23 06:24 | 25.70179 | 102.61785 | 25559 ft | 477 kts | 1° |
| 2026-04-23 06:24 | 25.73474 | 102.62308 | 25870 ft | 479 kts | 1° |
| 2026-04-23 06:24 | 25.76775 | 102.62930 | 26193 ft | 487 kts | 7° |
| 2026-04-23 06:25 | 25.80010 | 102.64200 | 26418 ft | 502 kts | 20° |
| 2026-04-23 06:25 | 25.82997 | 102.66300 | 26626 ft | 515 kts | 33° |
| 2026-04-23 06:25 | 25.85765 | 102.68873 | 26805 ft | 522 kts | 36° |
| 2026-04-23 06:25 | 25.88519 | 102.71507 | 27022 ft | 522 kts | 36° |
| 2026-04-23 06:26 | 25.91250 | 102.74100 | 27301 ft | 524 kts | 35° |
| 2026-04-23 06:26 | 25.94035 | 102.76718 | 27607 ft | 525 kts | 34° |
| 2026-04-23 06:26 | 25.96832 | 102.79333 | 27826 ft | 528 kts | 34° |
| 2026-04-23 06:26 | 25.99652 | 102.81966 | 28102 ft | 530 kts | 34° |
| 2026-04-23 06:27 | 26.02468 | 102.84602 | 28528 ft | 528 kts | 34° |
| 2026-04-23 06:27 | 26.05275 | 102.87232 | 28903 ft | 528 kts | 34° |
| 2026-04-23 06:27 | 26.08085 | 102.89865 | 29232 ft | 528 kts | 34° |
| 2026-04-23 06:27 | 26.10894 | 102.92499 | 29557 ft | 528 kts | 34° |
| 2026-04-23 06:28 | 26.13704 | 102.95138 | 29861 ft | 530 kts | 34° |
| 2026-04-23 06:28 | 26.16490 | 102.97755 | 30093 ft | 532 kts | 33° |
| 2026-04-23 06:28 | 26.19321 | 103.00413 | 30360 ft | 533 kts | 33° |
| 2026-04-23 06:28 | 26.22153 | 103.03075 | 30720 ft | 532 kts | 33° |
| 2026-04-23 06:29 | 26.24976 | 103.05731 | 31025 ft | 531 kts | 33° |
| 2026-04-23 06:29 | 26.27790 | 103.08382 | 31391 ft | 527 kts | 33° |
| 2026-04-23 06:29 | 26.30572 | 103.11006 | 31768 ft | 522 kts | 33° |
| 2026-04-23 06:29 | 26.33358 | 103.13625 | 31999 ft | 525 kts | 32° |
| 2026-04-23 06:30 | 26.36157 | 103.16255 | 32113 ft | 529 kts | 32° |
| 2026-04-23 06:30 | 26.38981 | 103.18916 | 32240 ft | 533 kts | 32° |
| 2026-04-23 06:30 | 26.41778 | 103.21556 | 32414 ft | 536 kts | 32° |
| 2026-04-23 06:30 | 26.44621 | 103.24246 | 32628 ft | 536 kts | 31° |
| 2026-04-23 06:31 | 26.47470 | 103.26944 | 32880 ft | 537 kts | 32° |
| 2026-04-23 06:31 | 26.50389 | 103.29491 | 33094 ft | 527 kts | 24° |
| 2026-04-23 06:31 | 26.53557 | 103.31446 | 33285 ft | 516 kts | 16° |
| 2026-04-23 06:31 | 26.56776 | 103.33214 | 33613 ft | 515 kts | 15° |
| 2026-04-23 06:32 | 26.59995 | 103.34970 | 33879 ft | 514 kts | 15° |
| 2026-04-23 06:32 | 26.63199 | 103.36734 | 34112 ft | 514 kts | 15° |
| 2026-04-23 06:32 | 26.66355 | 103.38489 | 34328 ft | 512 kts | 15° |
| 2026-04-23 06:32 | 26.69535 | 103.40264 | 34469 ft | 511 kts | 15° |
| 2026-04-23 06:33 | 26.72720 | 103.42042 | 34585 ft | 512 kts | 15° |
| 2026-04-23 06:33 | 26.75910 | 103.43821 | 34722 ft | 512 kts | 15° |
| 2026-04-23 06:33 | 26.79097 | 103.45600 | 34865 ft | 512 kts | 15° |
| 2026-04-23 06:33 | 26.82283 | 103.47381 | 35026 ft | 512 kts | 15° |
| 2026-04-23 06:34 | 26.85467 | 103.49162 | 35158 ft | 511 kts | 16° |
| 2026-04-23 06:34 | 26.88641 | 103.50940 | 35146 ft | 510 kts | 15° |
| 2026-04-23 06:34 | 26.94953 | 103.54472 | 35082 ft | 512 kts | 15° |
| 2026-04-23 06:35 | 27.01321 | 103.58044 | 35079 ft | 511 kts | 15° |
| 2026-04-23 06:35 | 27.07701 | 103.61627 | 35060 ft | 512 kts | 16° |
| 2026-04-23 06:36 | 27.14052 | 103.65200 | 35086 ft | 510 kts | 16° |
| 2026-04-23 06:36 | 27.20355 | 103.68749 | 35067 ft | 509 kts | 17° |
| 2026-04-23 06:37 | 27.26696 | 103.72328 | 35057 ft | 510 kts | 17° |
| 2026-04-23 06:37 | 27.33045 | 103.75876 | 35047 ft | 508 kts | 14° |
| 2026-04-23 06:38 | 27.39451 | 103.79191 | 35074 ft | 506 kts | 14° |
| 2026-04-23 06:38 | 27.45773 | 103.82451 | 35041 ft | 502 kts | 15° |
| 2026-04-23 06:39 | 27.52123 | 103.85759 | 35035 ft | 503 kts | 15° |
| 2026-04-23 06:39 | 27.58502 | 103.89104 | 35019 ft | 508 kts | 15° |
| 2026-04-23 06:40 | 27.64909 | 103.92468 | 35034 ft | 506 kts | 15° |
| 2026-04-23 06:40 | 27.71282 | 103.95812 | 35050 ft | 509 kts | 15° |
| 2026-04-23 06:41 | 27.77702 | 103.99188 | 35001 ft | 509 kts | 15° |
| 2026-04-23 06:41 | 27.84118 | 104.02570 | 34991 ft | 508 kts | 15° |
| 2026-04-23 06:42 | 27.90530 | 104.05950 | 34993 ft | 508 kts | 15° |
| 2026-04-23 06:42 | 27.96879 | 104.09305 | 35008 ft | 501 kts | 15° |
| 2026-04-23 06:43 | 28.03174 | 104.12635 | 34975 ft | 500 kts | 15° |
| 2026-04-23 06:43 | 28.09511 | 104.15984 | 34995 ft | 501 kts | 15° |
| 2026-04-23 06:44 | 28.15829 | 104.19331 | 34973 ft | 503 kts | 15° |
| 2026-04-23 06:44 | 28.22144 | 104.22681 | 35021 ft | 500 kts | 16° |
| 2026-04-23 06:45 | 28.28377 | 104.25992 | 34988 ft | 499 kts | 16° |
| 2026-04-23 06:45 | 28.34664 | 104.29301 | 34976 ft | 494 kts | 12° |
| 2026-04-23 06:46 | 28.37888 | 104.30469 | 34970 ft | 481 kts | 2° |
| 2026-04-23 06:46 | 28.41150 | 104.30948 | 34971 ft | 465 kts | 351° |
| 2026-04-23 06:46 | 28.47509 | 104.30653 | 34981 ft | 457 kts | 345° |
| 2026-04-23 06:47 | 28.53771 | 104.30253 | 34995 ft | 451 kts | 347° |
| 2026-04-23 06:47 | 28.60053 | 104.29902 | 34978 ft | 452 kts | 347° |
| 2026-04-23 06:48 | 28.66340 | 104.29557 | 34972 ft | 452 kts | 347° |
| 2026-04-23 06:48 | 28.72625 | 104.29213 | 34971 ft | 452 kts | 347° |
| 2026-04-23 06:49 | 28.78870 | 104.28870 | 35007 ft | 451 kts | 347° |
| 2026-04-23 06:49 | 28.85119 | 104.28532 | 34972 ft | 449 kts | 348° |
| 2026-04-23 06:50 | 28.91377 | 104.28186 | 34976 ft | 452 kts | 347° |
| 2026-04-23 06:50 | 28.97642 | 104.27837 | 34969 ft | 451 kts | 348° |
| 2026-04-23 06:51 | 29.03903 | 104.27495 | 34973 ft | 450 kts | 348° |
| 2026-04-23 06:51 | 29.10106 | 104.27159 | 34992 ft | 448 kts | 348° |
| 2026-04-23 06:52 | 29.16327 | 104.26814 | 34973 ft | 448 kts | 348° |
| 2026-04-23 06:52 | 29.22557 | 104.26474 | 34976 ft | 448 kts | 348° |
| 2026-04-23 06:53 | 29.28829 | 104.26477 | 34976 ft | 460 kts | 358° |
| 2026-04-23 06:53 | 29.35154 | 104.27532 | 35013 ft | 462 kts | 360° |
| 2026-04-23 06:54 | 29.41467 | 104.28625 | 34985 ft | 459 kts | 359° |
| 2026-04-23 06:54 | 29.47792 | 104.29698 | 34978 ft | 459 kts | 359° |
| 2026-04-23 06:55 | 29.54107 | 104.30771 | 34981 ft | 458 kts | 359° |
| 2026-04-23 06:55 | 29.60383 | 104.31840 | 34980 ft | 458 kts | 359° |
| 2026-04-23 06:56 | 29.66666 | 104.32912 | 34992 ft | 455 kts | 360° |
| 2026-04-23 06:56 | 29.72933 | 104.33978 | 34984 ft | 455 kts | 360° |
| 2026-04-23 06:57 | 29.79195 | 104.35052 | 34983 ft | 455 kts | 360° |
| 2026-04-23 06:57 | 29.85463 | 104.36114 | 34983 ft | 455 kts | 0° |
| 2026-04-23 06:58 | 29.91681 | 104.37175 | 35006 ft | 453 kts | 0° |
| 2026-04-23 06:58 | 29.97911 | 104.38242 | 34987 ft | 453 kts | 0° |
| 2026-04-23 06:59 | 30.04148 | 104.39310 | 34981 ft | 452 kts | 0° |
| 2026-04-23 06:59 | 30.10378 | 104.40385 | 34983 ft | 452 kts | 0° |
| 2026-04-23 07:00 | 30.16604 | 104.41455 | 35001 ft | 453 kts | 1° |
| 2026-04-23 07:00 | 30.22779 | 104.42535 | 34994 ft | 451 kts | 1° |
| 2026-04-23 07:01 | 30.28985 | 104.43617 | 35005 ft | 451 kts | 1° |
| 2026-04-23 07:01 | 30.35199 | 104.44705 | 35007 ft | 451 kts | 1° |
| 2026-04-23 07:02 | 30.41421 | 104.45792 | 35004 ft | 452 kts | 1° |
| 2026-04-23 07:02 | 30.47602 | 104.46886 | 35000 ft | 451 kts | 1° |
| 2026-04-23 07:03 | 30.53816 | 104.47991 | 34993 ft | 453 kts | 3° |
| 2026-04-23 07:03 | 30.56894 | 104.48946 | 34989 ft | 465 kts | 14° |
| 2026-04-23 07:03 | 30.59805 | 104.50685 | 34989 ft | 479 kts | 28° |
| 2026-04-23 07:04 | 30.62356 | 104.53239 | 34985 ft | 491 kts | 43° |
| 2026-04-23 07:04 | 30.64372 | 104.56477 | 34991 ft | 499 kts | 55° |
| 2026-04-23 07:04 | 30.67703 | 104.63502 | 34990 ft | 500 kts | 57° |
| 2026-04-23 07:05 | 30.71066 | 104.70538 | 34993 ft | 496 kts | 56° |
| 2026-04-23 07:05 | 30.74463 | 104.77516 | 34982 ft | 496 kts | 56° |
| 2026-04-23 07:06 | 30.77859 | 104.84508 | 34979 ft | 496 kts | 56° |
| 2026-04-23 07:06 | 30.81226 | 104.91452 | 34976 ft | 497 kts | 56° |
| 2026-04-23 07:07 | 30.84640 | 104.98488 | 34976 ft | 500 kts | 56° |
| 2026-04-23 07:07 | 30.88050 | 105.05546 | 34976 ft | 500 kts | 56° |
| 2026-04-23 07:08 | 30.91444 | 105.12611 | 35000 ft | 498 kts | 56° |
| 2026-04-23 07:08 | 30.94822 | 105.19641 | 34978 ft | 497 kts | 56° |
| 2026-04-23 07:09 | 30.98174 | 105.26619 | 34985 ft | 496 kts | 56° |
| 2026-04-23 07:09 | 31.01540 | 105.33666 | 34983 ft | 500 kts | 56° |
| 2026-04-23 07:10 | 31.04924 | 105.40756 | 34972 ft | 499 kts | 56° |
| 2026-04-23 07:10 | 31.08303 | 105.47832 | 34977 ft | 500 kts | 56° |
| 2026-04-23 07:11 | 31.11644 | 105.54878 | 34990 ft | 499 kts | 56° |
| 2026-04-23 07:12 | 31.16647 | 105.65461 | 34978 ft | 497 kts | 57° |
| 2026-04-23 07:12 | 31.19987 | 105.72541 | 34979 ft | 498 kts | 57° |
| 2026-04-23 07:13 | 31.23326 | 105.79639 | 34982 ft | 498 kts | 57° |
| 2026-04-23 07:13 | 31.26639 | 105.86690 | 34980 ft | 498 kts | 57° |
| 2026-04-23 07:14 | 31.29968 | 105.93791 | 34965 ft | 499 kts | 57° |
| 2026-04-23 07:14 | 31.33303 | 106.00916 | 34998 ft | 499 kts | 57° |
| 2026-04-23 07:15 | 31.36960 | 106.07703 | 34983 ft | 489 kts | 44° |
| 2026-04-23 07:15 | 31.41516 | 106.13455 | 34979 ft | 484 kts | 40° |
| 2026-04-23 07:16 | 31.46158 | 106.19156 | 34977 ft | 484 kts | 41° |
| 2026-04-23 07:16 | 31.50767 | 106.24930 | 34975 ft | 486 kts | 41° |
| 2026-04-23 07:17 | 31.55378 | 106.30728 | 34978 ft | 486 kts | 41° |
| 2026-04-23 07:17 | 31.59925 | 106.36448 | 34991 ft | 483 kts | 41° |
| 2026-04-23 07:18 | 31.64526 | 106.42215 | 34976 ft | 484 kts | 41° |
| 2026-04-23 07:18 | 31.69157 | 106.47947 | 34980 ft | 484 kts | 41° |
| 2026-04-23 07:19 | 31.73781 | 106.53693 | 34978 ft | 483 kts | 41° |
| 2026-04-23 07:19 | 31.78399 | 106.59441 | 34977 ft | 484 kts | 41° |
| 2026-04-23 07:20 | 31.82970 | 106.65136 | 34976 ft | 483 kts | 41° |
| 2026-04-23 07:20 | 31.87580 | 106.70885 | 34970 ft | 484 kts | 41° |
| 2026-04-23 07:21 | 31.92212 | 106.76672 | 35001 ft | 485 kts | 41° |
| 2026-04-23 07:21 | 31.96833 | 106.82463 | 34989 ft | 485 kts | 41° |
| 2026-04-23 07:22 | 32.01419 | 106.88212 | 35008 ft | 484 kts | 41° |
| 2026-04-23 07:22 | 32.06019 | 106.93993 | 34990 ft | 482 kts | 41° |
| 2026-04-23 07:23 | 32.10630 | 106.99757 | 34989 ft | 484 kts | 41° |
| 2026-04-23 07:23 | 32.15238 | 107.05500 | 34988 ft | 482 kts | 40° |
| 2026-04-23 07:24 | 32.19835 | 107.11242 | 34991 ft | 485 kts | 41° |
| 2026-04-23 07:24 | 32.24415 | 107.17120 | 34997 ft | 489 kts | 46° |
| 2026-04-23 07:25 | 32.27800 | 107.24151 | 35011 ft | 499 kts | 65° |
| 2026-04-23 07:25 | 32.30150 | 107.31880 | 34991 ft | 500 kts | 67° |
| 2026-04-23 07:26 | 32.32491 | 107.39625 | 34994 ft | 501 kts | 66° |
| 2026-04-23 07:26 | 32.34858 | 107.47342 | 35026 ft | 504 kts | 66° |
| 2026-04-23 07:27 | 32.37235 | 107.55108 | 35010 ft | 502 kts | 66° |
| 2026-04-23 07:27 | 32.39600 | 107.62877 | 35003 ft | 502 kts | 66° |
| 2026-04-23 07:28 | 32.41970 | 107.70652 | 35006 ft | 504 kts | 66° |
| 2026-04-23 07:28 | 32.44313 | 107.78361 | 35024 ft | 500 kts | 66° |
| 2026-04-23 07:29 | 32.46658 | 107.86109 | 35008 ft | 500 kts | 67° |
| 2026-04-23 07:29 | 32.49089 | 107.93829 | 35002 ft | 500 kts | 61° |
| 2026-04-23 07:29 | 32.50775 | 107.97395 | 35008 ft | 492 kts | 50° |
| 2026-04-23 07:30 | 32.52936 | 108.00485 | 35009 ft | 484 kts | 39° |
| 2026-04-23 07:30 | 32.55503 | 108.03009 | 35011 ft | 475 kts | 27° |
| 2026-04-23 07:30 | 32.58342 | 108.04907 | 35011 ft | 464 kts | 17° |
| 2026-04-23 07:31 | 32.64360 | 108.07234 | 35014 ft | 456 kts | 9° |
| 2026-04-23 07:31 | 32.70466 | 108.09320 | 35008 ft | 456 kts | 9° |
| 2026-04-23 07:32 | 32.76555 | 108.11461 | 35011 ft | 457 kts | 10° |
| 2026-04-23 07:32 | 32.82657 | 108.13622 | 35018 ft | 458 kts | 9° |
| 2026-04-23 07:33 | 32.88731 | 108.15777 | 35033 ft | 456 kts | 10° |
| 2026-04-23 07:33 | 32.94790 | 108.17933 | 35023 ft | 454 kts | 10° |
| 2026-04-23 07:34 | 33.00845 | 108.20092 | 35021 ft | 455 kts | 10° |
| 2026-04-23 07:34 | 33.06910 | 108.22253 | 35027 ft | 456 kts | 10° |
| 2026-04-23 07:35 | 33.12929 | 108.24402 | 35037 ft | 453 kts | 11° |
| 2026-04-23 07:35 | 33.18953 | 108.26553 | 35030 ft | 452 kts | 11° |
| 2026-04-23 07:36 | 33.24987 | 108.28714 | 35008 ft | 454 kts | 11° |
| 2026-04-23 07:36 | 33.31031 | 108.30930 | 35026 ft | 454 kts | 14° |
| 2026-04-23 07:37 | 33.36800 | 108.34073 | 35048 ft | 460 kts | 21° |
| 2026-04-23 07:37 | 33.42506 | 108.37493 | 35032 ft | 459 kts | 21° |
| 2026-04-23 07:38 | 33.48217 | 108.40897 | 35045 ft | 458 kts | 21° |
| 2026-04-23 07:38 | 33.53934 | 108.44304 | 35041 ft | 460 kts | 21° |
| 2026-04-23 07:39 | 33.59666 | 108.47722 | 35068 ft | 459 kts | 21° |
| 2026-04-23 07:39 | 33.65333 | 108.51106 | 35046 ft | 458 kts | 21° |
| 2026-04-23 07:40 | 33.71048 | 108.54524 | 35046 ft | 458 kts | 21° |
| 2026-04-23 07:40 | 33.76768 | 108.57956 | 35034 ft | 462 kts | 21° |
| 2026-04-23 07:41 | 33.82492 | 108.61393 | 35036 ft | 458 kts | 21° |
| 2026-04-23 07:41 | 33.88153 | 108.64797 | 35039 ft | 457 kts | 21° |
| 2026-04-23 07:42 | 33.93845 | 108.68224 | 35030 ft | 457 kts | 21° |
| 2026-04-23 07:42 | 33.99547 | 108.71657 | 35022 ft | 458 kts | 21° |
| 2026-04-23 07:43 | 34.05233 | 108.75088 | 35029 ft | 457 kts | 21° |
| 2026-04-23 07:43 | 34.10873 | 108.78491 | 35010 ft | 457 kts | 21° |
| 2026-04-23 07:44 | 34.16567 | 108.81939 | 35005 ft | 458 kts | 21° |
| 2026-04-23 07:44 | 34.22338 | 108.85116 | 35001 ft | 451 kts | 12° |
| 2026-04-23 07:45 | 34.28436 | 108.86441 | 35022 ft | 443 kts | 2° |
| 2026-04-23 07:45 | 34.34499 | 108.87371 | 35007 ft | 442 kts | 2° |
| 2026-04-23 07:46 | 34.40604 | 108.88355 | 35005 ft | 443 kts | 2° |
| 2026-04-23 07:46 | 34.46712 | 108.89355 | 35005 ft | 443 kts | 2° |
| 2026-04-23 07:47 | 34.52812 | 108.90356 | 35016 ft | 442 kts | 3° |
| 2026-04-23 07:47 | 34.58850 | 108.91365 | 35011 ft | 442 kts | 5° |
| 2026-04-23 07:48 | 34.64842 | 108.93281 | 35010 ft | 447 kts | 12° |
| 2026-04-23 07:48 | 34.70808 | 108.95461 | 35019 ft | 449 kts | 11° |
| 2026-04-23 07:49 | 34.76777 | 108.97627 | 35031 ft | 445 kts | 12° |
| 2026-04-23 07:49 | 34.82710 | 108.99798 | 35024 ft | 446 kts | 13° |
| 2026-04-23 07:50 | 34.88581 | 109.02102 | 35023 ft | 446 kts | 13° |
| 2026-04-23 07:50 | 34.94489 | 109.04436 | 35024 ft | 446 kts | 13° |
| 2026-04-23 07:51 | 35.00398 | 109.06769 | 35026 ft | 446 kts | 13° |
| 2026-04-23 07:51 | 35.06308 | 109.09105 | 35029 ft | 446 kts | 13° |
| 2026-04-23 07:52 | 35.12179 | 109.11428 | 35026 ft | 446 kts | 13° |
| 2026-04-23 07:52 | 35.18106 | 109.13775 | 35028 ft | 448 kts | 13° |
| 2026-04-23 07:53 | 35.24029 | 109.16128 | 35031 ft | 447 kts | 13° |
| 2026-04-23 07:53 | 35.29946 | 109.18485 | 35030 ft | 448 kts | 13° |
| 2026-04-23 07:54 | 35.35820 | 109.20829 | 35024 ft | 447 kts | 13° |
| 2026-04-23 07:54 | 35.41741 | 109.23189 | 35018 ft | 448 kts | 13° |
| 2026-04-23 07:55 | 35.47654 | 109.25557 | 35008 ft | 447 kts | 13° |
| 2026-04-23 07:55 | 35.53562 | 109.27924 | 35011 ft | 447 kts | 13° |
| 2026-04-23 07:56 | 35.59430 | 109.30279 | 35005 ft | 446 kts | 13° |
| 2026-04-23 07:56 | 35.65329 | 109.32649 | 35014 ft | 446 kts | 14° |
| 2026-04-23 07:57 | 35.71213 | 109.35020 | 35005 ft | 445 kts | 14° |
| 2026-04-23 07:57 | 35.76940 | 109.38001 | 34994 ft | 454 kts | 29° |
| 2026-04-23 07:57 | 35.79401 | 109.40484 | 34999 ft | 462 kts | 42° |
| 2026-04-23 07:58 | 35.81410 | 109.43528 | 34996 ft | 466 kts | 50° |
| 2026-04-23 07:58 | 35.85160 | 109.50047 | 34997 ft | 466 kts | 51° |
| 2026-04-23 07:59 | 35.88925 | 109.56522 | 35003 ft | 463 kts | 50° |
| 2026-04-23 07:59 | 35.92701 | 109.62962 | 34985 ft | 463 kts | 50° |
| 2026-04-23 08:00 | 35.96453 | 109.69369 | 34986 ft | 464 kts | 50° |
| 2026-04-23 08:00 | 36.00223 | 109.75823 | 34985 ft | 463 kts | 51° |
| 2026-04-23 08:01 | 36.03993 | 109.82292 | 34996 ft | 465 kts | 51° |
| 2026-04-23 08:01 | 36.07761 | 109.88761 | 34982 ft | 463 kts | 51° |
| 2026-04-23 08:02 | 36.11520 | 109.95229 | 34976 ft | 463 kts | 51° |
| 2026-04-23 08:02 | 36.15251 | 110.01661 | 34972 ft | 463 kts | 51° |
| 2026-04-23 08:03 | 36.19006 | 110.08144 | 34972 ft | 463 kts | 51° |
| 2026-04-23 08:03 | 36.22749 | 110.14638 | 34985 ft | 463 kts | 51° |
| 2026-04-23 08:04 | 36.26488 | 110.21135 | 34976 ft | 463 kts | 51° |
| 2026-04-23 08:04 | 36.30188 | 110.27585 | 34975 ft | 462 kts | 51° |
| 2026-04-23 08:05 | 36.33919 | 110.34093 | 34964 ft | 462 kts | 51° |
| 2026-04-23 08:05 | 36.37613 | 110.40543 | 34968 ft | 462 kts | 51° |
| 2026-04-23 08:06 | 36.41347 | 110.47086 | 34964 ft | 461 kts | 51° |
| 2026-04-23 08:06 | 36.45035 | 110.53554 | 34963 ft | 462 kts | 52° |
| 2026-04-23 08:07 | 36.48740 | 110.60066 | 34963 ft | 462 kts | 52° |
| 2026-04-23 08:07 | 36.52453 | 110.66611 | 34958 ft | 462 kts | 52° |
| 2026-04-23 08:08 | 36.56156 | 110.73142 | 34963 ft | 462 kts | 52° |
| 2026-04-23 08:08 | 36.59821 | 110.79626 | 34970 ft | 460 kts | 52° |
| 2026-04-23 08:09 | 36.63503 | 110.86147 | 34968 ft | 461 kts | 52° |
| 2026-04-23 08:09 | 36.67180 | 110.92673 | 34977 ft | 461 kts | 52° |
| 2026-04-23 08:10 | 36.70874 | 110.99191 | 34966 ft | 460 kts | 50° |
| 2026-04-23 08:10 | 36.77159 | 111.08080 | 34982 ft | 456 kts | 45° |
| 2026-04-23 08:11 | 36.81406 | 111.13953 | 34978 ft | 456 kts | 45° |
| 2026-04-23 08:11 | 36.85653 | 111.19854 | 34991 ft | 457 kts | 45° |
| 2026-04-23 08:12 | 36.89897 | 111.25760 | 34987 ft | 457 kts | 45° |
| 2026-04-23 08:12 | 36.94135 | 111.31674 | 34990 ft | 457 kts | 45° |
| 2026-04-23 08:13 | 36.98342 | 111.37551 | 34988 ft | 457 kts | 45° |
| 2026-04-23 08:13 | 37.02578 | 111.43476 | 34987 ft | 457 kts | 45° |
| 2026-04-23 08:14 | 37.05973 | 111.48237 | 34985 ft | 457 kts | 45° |
| 2026-04-23 08:14 | 37.10562 | 111.54688 | 34985 ft | 457 kts | 45° |
| 2026-04-23 08:15 | 37.14767 | 111.60603 | 34985 ft | 454 kts | 45° |
| 2026-04-23 08:15 | 37.18968 | 111.66525 | 34983 ft | 454 kts | 45° |
| 2026-04-23 08:16 | 37.23163 | 111.72448 | 34981 ft | 454 kts | 45° |
| 2026-04-23 08:16 | 37.26956 | 111.78810 | 34982 ft | 459 kts | 58° |
| 2026-04-23 08:17 | 37.29871 | 111.85890 | 34988 ft | 458 kts | 60° |
| 2026-04-23 08:17 | 37.32755 | 111.93022 | 34985 ft | 458 kts | 60° |
| 2026-04-23 08:18 | 37.35664 | 112.00140 | 34976 ft | 458 kts | 60° |
| 2026-04-23 08:18 | 37.38569 | 112.07263 | 34975 ft | 458 kts | 60° |
| 2026-04-23 08:19 | 37.41451 | 112.14342 | 34974 ft | 459 kts | 60° |
| 2026-04-23 08:19 | 37.44365 | 112.21517 | 34984 ft | 459 kts | 60° |
| 2026-04-23 08:20 | 37.46768 | 112.27449 | 34974 ft | 458 kts | 60° |
| 2026-04-23 08:20 | 37.49659 | 112.34598 | 34972 ft | 458 kts | 60° |
| 2026-04-23 08:21 | 37.52543 | 112.41750 | 34973 ft | 458 kts | 60° |
| 2026-04-23 08:21 | 37.55428 | 112.48916 | 34975 ft | 459 kts | 60° |
| 2026-04-23 08:22 | 37.58779 | 112.57247 | 34985 ft | 458 kts | 60° |
| 2026-04-23 08:22 | 37.61161 | 112.63189 | 34977 ft | 456 kts | 60° |
| 2026-04-23 08:23 | 37.64024 | 112.70336 | 34978 ft | 456 kts | 60° |
| 2026-04-23 08:23 | 37.67351 | 112.78643 | 34983 ft | 457 kts | 60° |
| 2026-04-23 08:24 | 37.69733 | 112.84613 | 34978 ft | 458 kts | 60° |
| 2026-04-23 08:24 | 37.72595 | 112.91799 | 34978 ft | 458 kts | 60° |
| 2026-04-23 08:25 | 37.75438 | 112.98961 | 34979 ft | 455 kts | 60° |
| 2026-04-23 08:25 | 37.78269 | 113.06103 | 34980 ft | 455 kts | 60° |
| 2026-04-23 08:26 | 37.81105 | 113.13268 | 34976 ft | 457 kts | 60° |
| 2026-04-23 08:26 | 37.83928 | 113.20425 | 34975 ft | 458 kts | 60° |
| 2026-04-23 08:27 | 37.86770 | 113.27637 | 34973 ft | 458 kts | 61° |
| 2026-04-23 08:27 | 37.89597 | 113.34837 | 34974 ft | 456 kts | 61° |
| 2026-04-23 08:28 | 37.92414 | 113.42027 | 34968 ft | 456 kts | 61° |
| 2026-04-23 08:28 | 37.95212 | 113.49184 | 34968 ft | 457 kts | 61° |
| 2026-04-23 08:29 | 37.98013 | 113.56408 | 34964 ft | 457 kts | 61° |
| 2026-04-23 08:29 | 38.00809 | 113.63628 | 34964 ft | 456 kts | 61° |
| 2026-04-23 08:30 | 38.03599 | 113.70845 | 34964 ft | 455 kts | 61° |
| 2026-04-23 08:30 | 38.06384 | 113.78057 | 34966 ft | 455 kts | 61° |
| 2026-04-23 08:31 | 38.09145 | 113.85220 | 34954 ft | 455 kts | 61° |
| 2026-04-23 08:31 | 38.11918 | 113.92443 | 34956 ft | 455 kts | 61° |
| 2026-04-23 08:32 | 38.14687 | 113.99673 | 34956 ft | 455 kts | 61° |
| 2026-04-23 08:32 | 38.17447 | 114.06890 | 34956 ft | 453 kts | 61° |
| 2026-04-23 08:33 | 38.20187 | 114.14070 | 34949 ft | 455 kts | 61° |
| 2026-04-23 08:33 | 38.22957 | 114.21298 | 34950 ft | 454 kts | 61° |
| 2026-04-23 08:34 | 38.25719 | 114.28529 | 34952 ft | 454 kts | 61° |
| 2026-04-23 08:34 | 38.28475 | 114.35761 | 34949 ft | 454 kts | 62° |
| 2026-04-23 08:35 | 38.31211 | 114.42970 | 34957 ft | 451 kts | 61° |
| 2026-04-23 08:35 | 38.33914 | 114.50102 | 34952 ft | 451 kts | 62° |
| 2026-04-23 08:36 | 38.36633 | 114.57299 | 34940 ft | 451 kts | 62° |
| 2026-04-23 08:36 | 38.39345 | 114.64487 | 34948 ft | 451 kts | 62° |
| 2026-04-23 08:37 | 38.42062 | 114.71702 | 34952 ft | 451 kts | 62° |
| 2026-04-23 08:37 | 38.44733 | 114.78843 | 34951 ft | 451 kts | 62° |
| 2026-04-23 08:38 | 38.47431 | 114.86052 | 34954 ft | 451 kts | 62° |
| 2026-04-23 08:38 | 38.50127 | 114.93271 | 34956 ft | 451 kts | 62° |
| 2026-04-23 08:39 | 38.52824 | 115.00512 | 34960 ft | 451 kts | 62° |
| 2026-04-23 08:39 | 38.55520 | 115.07769 | 34954 ft | 452 kts | 62° |
| 2026-04-23 08:40 | 38.58161 | 115.14936 | 34963 ft | 448 kts | 62° |
| 2026-04-23 08:40 | 38.60806 | 115.22144 | 34965 ft | 448 kts | 62° |
| 2026-04-23 08:41 | 38.63455 | 115.29350 | 34957 ft | 448 kts | 62° |
| 2026-04-23 08:41 | 38.66109 | 115.36569 | 34966 ft | 450 kts | 62° |
| 2026-04-23 08:42 | 38.68768 | 115.43823 | 34965 ft | 450 kts | 62° |
| 2026-04-23 08:42 | 38.71390 | 115.50991 | 34958 ft | 447 kts | 62° |
| 2026-04-23 08:43 | 38.74413 | 115.57917 | 34963 ft | 445 kts | 57° |
| 2026-04-23 08:43 | 38.77575 | 115.64740 | 34968 ft | 446 kts | 57° |
| 2026-04-23 08:44 | 38.80727 | 115.71589 | 34965 ft | 447 kts | 57° |
| 2026-04-23 08:44 | 38.83850 | 115.78401 | 34967 ft | 444 kts | 57° |
| 2026-04-23 08:45 | 38.86970 | 115.85217 | 34963 ft | 443 kts | 57° |
| 2026-04-23 08:45 | 38.90093 | 115.92050 | 34965 ft | 443 kts | 57° |
| 2026-04-23 08:46 | 38.93212 | 115.98896 | 34969 ft | 445 kts | 57° |
| 2026-04-23 08:46 | 38.96310 | 116.05705 | 34969 ft | 444 kts | 57° |
| 2026-04-23 08:47 | 38.99411 | 116.12538 | 34964 ft | 442 kts | 57° |
| 2026-04-23 08:47 | 39.02502 | 116.19365 | 34964 ft | 442 kts | 57° |
| 2026-04-23 08:48 | 39.05589 | 116.26197 | 34965 ft | 442 kts | 57° |
| 2026-04-23 08:48 | 39.08670 | 116.33028 | 34963 ft | 444 kts | 57° |
| 2026-04-23 08:49 | 39.11747 | 116.39873 | 34963 ft | 441 kts | 57° |
| 2026-04-23 08:49 | 39.14814 | 116.46705 | 34963 ft | 441 kts | 57° |
| 2026-04-23 08:50 | 39.18154 | 116.53289 | 34961 ft | 437 kts | 47° |
| 2026-04-23 08:50 | 39.22732 | 116.58330 | 34967 ft | 433 kts | 28° |
| 2026-04-23 08:51 | 39.28218 | 116.61302 | 34965 ft | 428 kts | 18° |
| 2026-04-23 08:51 | 39.33839 | 116.63847 | 34961 ft | 428 kts | 18° |
| 2026-04-23 08:52 | 39.39450 | 116.66446 | 34953 ft | 428 kts | 18° |
| 2026-04-23 08:52 | 39.45050 | 116.69065 | 34951 ft | 427 kts | 18° |
| 2026-04-23 08:53 | 39.50601 | 116.71662 | 34949 ft | 427 kts | 18° |
| 2026-04-23 08:53 | 39.56188 | 116.74279 | 34951 ft | 427 kts | 18° |
| 2026-04-23 08:54 | 39.61771 | 116.76899 | 34949 ft | 427 kts | 18° |
| 2026-04-23 08:54 | 39.67348 | 116.79521 | 34943 ft | 426 kts | 18° |
| 2026-04-23 08:55 | 39.72925 | 116.82146 | 34943 ft | 426 kts | 18° |
| 2026-04-23 08:55 | 39.78530 | 116.84433 | 34941 ft | 424 kts | 9° |
| 2026-04-23 08:56 | 39.84384 | 116.84636 | 34941 ft | 422 kts | 352° |
| 2026-04-23 08:56 | 39.90184 | 116.83461 | 34941 ft | 422 kts | 351° |
| 2026-04-23 08:57 | 39.95984 | 116.82266 | 34937 ft | 422 kts | 351° |
| 2026-04-23 08:57 | 40.01788 | 116.81106 | 34937 ft | 422 kts | 351° |
| 2026-04-23 08:58 | 40.07553 | 116.79952 | 34936 ft | 422 kts | 351° |
| 2026-04-23 08:58 | 40.13357 | 116.78786 | 34943 ft | 422 kts | 351° |
| 2026-04-23 08:59 | 40.19163 | 116.77624 | 34944 ft | 422 kts | 351° |
| 2026-04-23 08:59 | 40.24967 | 116.76459 | 34942 ft | 422 kts | 351° |
| 2026-04-23 09:00 | 40.30729 | 116.75312 | 34940 ft | 422 kts | 352° |
| 2026-04-23 09:00 | 40.36590 | 116.75254 | 34941 ft | 423 kts | 4° |
| 2026-04-23 09:01 | 40.42445 | 116.76007 | 34939 ft | 423 kts | 4° |
| 2026-04-23 09:01 | 40.48305 | 116.76751 | 34932 ft | 423 kts | 4° |
| 2026-04-23 09:02 | 40.54166 | 116.77491 | 34934 ft | 424 kts | 4° |
| 2026-04-23 09:02 | 40.59987 | 116.78222 | 34924 ft | 421 kts | 4° |
| 2026-04-23 09:03 | 40.65856 | 116.78961 | 34925 ft | 424 kts | 4° |
| 2026-04-23 09:03 | 40.71731 | 116.79702 | 34924 ft | 424 kts | 4° |
| 2026-04-23 09:04 | 40.77615 | 116.80308 | 34924 ft | 424 kts | 1° |
| 2026-04-23 09:04 | 40.83472 | 116.80615 | 34919 ft | 424 kts | 0° |
| 2026-04-23 09:05 | 40.89367 | 116.80919 | 34915 ft | 424 kts | 0° |
| 2026-04-23 09:05 | 40.95266 | 116.81229 | 34909 ft | 424 kts | 0° |
| 2026-04-23 09:06 | 41.01166 | 116.81530 | 34917 ft | 424 kts | 360° |
| 2026-04-23 09:06 | 41.07024 | 116.81836 | 34904 ft | 424 kts | 360° |
| 2026-04-23 09:07 | 41.12919 | 116.82149 | 34903 ft | 424 kts | 360° |
| 2026-04-23 09:07 | 41.18813 | 116.82455 | 34898 ft | 424 kts | 360° |
| 2026-04-23 09:08 | 41.24710 | 116.82766 | 34892 ft | 424 kts | 360° |
| 2026-04-23 09:08 | 41.30608 | 116.83071 | 34889 ft | 424 kts | 360° |
| 2026-04-23 09:09 | 41.36468 | 116.83378 | 34894 ft | 424 kts | 360° |
| 2026-04-23 09:09 | 41.42376 | 116.83689 | 34887 ft | 425 kts | 360° |
| 2026-04-23 09:10 | 41.51244 | 116.84159 | 34876 ft | 425 kts | 360° |
| 2026-04-23 09:11 | 41.57150 | 116.84472 | 34870 ft | 425 kts | 359° |
| 2026-04-23 09:11 | 41.63013 | 116.84897 | 34855 ft | 427 kts | 5° |
| 2026-04-23 09:11 | 41.65915 | 116.85803 | 34856 ft | 432 kts | 16° |
| 2026-04-23 09:12 | 41.68649 | 116.87500 | 34862 ft | 437 kts | 27° |
| 2026-04-23 09:12 | 41.71083 | 116.89959 | 34862 ft | 442 kts | 40° |
| 2026-04-23 09:12 | 41.73100 | 116.93098 | 34856 ft | 449 kts | 52° |
| 2026-04-23 09:13 | 41.75925 | 117.00615 | 34856 ft | 454 kts | 62° |
| 2026-04-23 09:13 | 41.78511 | 117.08272 | 34859 ft | 454 kts | 62° |
| 2026-04-23 09:14 | 41.81155 | 117.15951 | 34860 ft | 454 kts | 62° |
| 2026-04-23 09:14 | 41.83805 | 117.23635 | 34860 ft | 454 kts | 62° |
| 2026-04-23 09:15 | 41.86455 | 117.31317 | 34866 ft | 454 kts | 62° |
| 2026-04-23 09:15 | 41.89075 | 117.38964 | 34857 ft | 454 kts | 62° |
| 2026-04-23 09:16 | 41.91710 | 117.46668 | 34866 ft | 456 kts | 62° |
| 2026-04-23 09:16 | 41.94354 | 117.54391 | 34861 ft | 455 kts | 62° |
| 2026-04-23 09:17 | 41.96996 | 117.62134 | 34868 ft | 456 kts | 61° |
| 2026-04-23 09:17 | 41.99613 | 117.69834 | 34863 ft | 456 kts | 61° |
| 2026-04-23 09:18 | 42.02249 | 117.77583 | 34853 ft | 456 kts | 61° |
| 2026-04-23 09:18 | 42.04868 | 117.85359 | 34857 ft | 456 kts | 62° |
| 2026-04-23 09:19 | 42.07491 | 117.93151 | 34857 ft | 458 kts | 62° |
| 2026-04-23 09:19 | 42.10116 | 118.00965 | 34855 ft | 458 kts | 62° |
| 2026-04-23 09:20 | 42.12716 | 118.08727 | 34847 ft | 459 kts | 62° |
| 2026-04-23 09:20 | 42.15340 | 118.16575 | 34840 ft | 459 kts | 62° |
| 2026-04-23 09:21 | 42.17959 | 118.24421 | 34841 ft | 460 kts | 61° |
| 2026-04-23 09:21 | 42.20741 | 118.32171 | 34826 ft | 459 kts | 59° |
| 2026-04-23 09:22 | 42.23532 | 118.39850 | 34826 ft | 459 kts | 59° |
| 2026-04-23 09:22 | 42.26340 | 118.47584 | 34810 ft | 459 kts | 60° |
| 2026-04-23 09:23 | 42.29135 | 118.55320 | 34819 ft | 459 kts | 59° |
| 2026-04-23 09:23 | 42.31942 | 118.63076 | 34803 ft | 459 kts | 59° |
| 2026-04-23 09:24 | 42.34710 | 118.70782 | 34795 ft | 459 kts | 59° |
| 2026-04-23 09:24 | 42.37503 | 118.78556 | 34794 ft | 459 kts | 59° |
| 2026-04-23 09:25 | 42.40283 | 118.86326 | 34788 ft | 459 kts | 59° |
| 2026-04-23 09:25 | 42.43061 | 118.94123 | 34781 ft | 459 kts | 60° |
| 2026-04-23 09:26 | 42.45828 | 119.01907 | 34772 ft | 459 kts | 59° |
| 2026-04-23 09:26 | 42.48578 | 119.09662 | 34773 ft | 460 kts | 60° |
| 2026-04-23 09:27 | 42.51343 | 119.17479 | 34776 ft | 460 kts | 60° |
| 2026-04-23 09:27 | 42.54100 | 119.25305 | 34767 ft | 461 kts | 60° |
| 2026-04-23 09:28 | 42.56859 | 119.33155 | 34762 ft | 460 kts | 60° |
| 2026-04-23 09:28 | 42.59574 | 119.40902 | 34759 ft | 457 kts | 60° |
| 2026-04-23 09:29 | 42.62301 | 119.48707 | 34763 ft | 459 kts | 60° |
| 2026-04-23 09:29 | 42.65038 | 119.56555 | 34758 ft | 460 kts | 60° |
| 2026-04-23 09:30 | 42.67766 | 119.64410 | 34749 ft | 460 kts | 60° |
| 2026-04-23 09:30 | 42.70471 | 119.72211 | 34747 ft | 460 kts | 60° |
| 2026-04-23 09:31 | 42.73190 | 119.80101 | 34758 ft | 461 kts | 60° |
| 2026-04-23 09:31 | 42.75904 | 119.87992 | 34761 ft | 461 kts | 60° |
| 2026-04-23 09:32 | 42.78635 | 119.95907 | 34757 ft | 462 kts | 60° |
| 2026-04-23 09:32 | 42.81350 | 120.03828 | 34756 ft | 462 kts | 60° |
| 2026-04-23 09:33 | 42.84042 | 120.11708 | 34765 ft | 462 kts | 60° |
| 2026-04-23 09:33 | 42.86754 | 120.19669 | 34768 ft | 463 kts | 60° |
| 2026-04-23 09:34 | 42.89460 | 120.27635 | 34761 ft | 463 kts | 60° |
| 2026-04-23 09:34 | 42.92143 | 120.35558 | 34771 ft | 463 kts | 60° |
| 2026-04-23 09:35 | 42.94835 | 120.43532 | 34777 ft | 463 kts | 60° |
| 2026-04-23 09:35 | 42.97567 | 120.51481 | 34773 ft | 462 kts | 59° |
| 2026-04-23 09:36 | 43.00383 | 120.59356 | 34779 ft | 462 kts | 59° |
| 2026-04-23 09:36 | 43.03179 | 120.67193 | 34779 ft | 462 kts | 59° |
| 2026-04-23 09:37 | 43.05979 | 120.75067 | 34794 ft | 459 kts | 59° |
| 2026-04-23 09:37 | 43.08761 | 120.82911 | 34788 ft | 459 kts | 59° |
| 2026-04-23 09:38 | 43.11539 | 120.90775 | 34794 ft | 459 kts | 59° |
| 2026-04-23 09:38 | 43.14318 | 120.98649 | 34803 ft | 459 kts | 59° |
| 2026-04-23 09:39 | 43.17067 | 121.06474 | 34818 ft | 459 kts | 59° |
| 2026-04-23 09:39 | 43.19832 | 121.14363 | 34812 ft | 459 kts | 59° |
| 2026-04-23 09:40 | 43.22595 | 121.22260 | 34804 ft | 460 kts | 59° |
| 2026-04-23 09:40 | 43.25351 | 121.30164 | 34822 ft | 460 kts | 59° |
| 2026-04-23 09:41 | 43.28086 | 121.38035 | 34848 ft | 460 kts | 59° |
| 2026-04-23 09:41 | 43.30839 | 121.45971 | 34831 ft | 461 kts | 59° |
| 2026-04-23 09:42 | 43.33587 | 121.53927 | 34821 ft | 462 kts | 59° |
| 2026-04-23 09:42 | 43.36336 | 121.61907 | 34835 ft | 462 kts | 59° |
| 2026-04-23 09:43 | 43.39076 | 121.69882 | 34840 ft | 462 kts | 59° |
| 2026-04-23 09:43 | 43.41804 | 121.77838 | 34844 ft | 464 kts | 59° |
| 2026-04-23 09:44 | 43.44546 | 121.85869 | 34840 ft | 464 kts | 59° |
| 2026-04-23 09:44 | 43.47285 | 121.93912 | 34852 ft | 464 kts | 59° |
| 2026-04-23 09:45 | 43.50001 | 122.01908 | 34853 ft | 464 kts | 59° |
| 2026-04-23 09:45 | 43.52730 | 122.09972 | 34862 ft | 465 kts | 59° |
| 2026-04-23 09:46 | 43.55469 | 122.18041 | 34878 ft | 464 kts | 57° |
| 2026-04-23 09:46 | 43.58948 | 122.25401 | 34869 ft | 456 kts | 48° |
| 2026-04-23 09:47 | 43.62681 | 122.32466 | 34889 ft | 456 kts | 48° |
| 2026-04-23 09:47 | 43.66369 | 122.39518 | 34882 ft | 457 kts | 48° |
| 2026-04-23 09:48 | 43.70077 | 122.46652 | 34876 ft | 457 kts | 48° |
| 2026-04-23 09:48 | 43.73784 | 122.53799 | 34880 ft | 457 kts | 48° |
| 2026-04-23 09:49 | 43.77489 | 122.60953 | 34886 ft | 458 kts | 48° |
| 2026-04-23 09:49 | 43.81169 | 122.68088 | 34886 ft | 458 kts | 48° |
| 2026-04-23 09:50 | 43.84874 | 122.75279 | 34893 ft | 458 kts | 48° |
| 2026-04-23 09:50 | 43.88572 | 122.82477 | 34897 ft | 458 kts | 48° |
| 2026-04-23 09:51 | 43.92266 | 122.89685 | 34903 ft | 459 kts | 48° |
| 2026-04-23 09:51 | 43.95974 | 122.96781 | 34902 ft | 458 kts | 47° |
| 2026-04-23 09:52 | 43.99769 | 123.03943 | 34913 ft | 459 kts | 47° |
| 2026-04-23 09:52 | 44.03545 | 123.11087 | 34937 ft | 459 kts | 47° |
| 2026-04-23 09:53 | 44.07329 | 123.18263 | 34917 ft | 460 kts | 47° |
| 2026-04-23 09:53 | 44.11082 | 123.25404 | 34918 ft | 460 kts | 47° |
| 2026-04-23 09:54 | 44.14858 | 123.32597 | 34926 ft | 460 kts | 47° |
| 2026-04-23 09:54 | 44.18629 | 123.39803 | 34924 ft | 460 kts | 47° |
| 2026-04-23 09:55 | 44.22402 | 123.47027 | 34927 ft | 461 kts | 47° |
| 2026-04-23 09:55 | 44.26155 | 123.54236 | 34927 ft | 459 kts | 47° |
| 2026-04-23 09:56 | 44.29879 | 123.61402 | 34933 ft | 459 kts | 47° |
| 2026-04-23 09:56 | 44.33622 | 123.68623 | 34939 ft | 459 kts | 47° |
| 2026-04-23 09:57 | 44.37362 | 123.75855 | 34943 ft | 459 kts | 47° |
| 2026-04-23 09:57 | 44.41095 | 123.83092 | 34944 ft | 459 kts | 47° |
| 2026-04-23 09:58 | 44.44799 | 123.90293 | 34960 ft | 459 kts | 47° |
| 2026-04-23 09:58 | 44.48550 | 123.97529 | 34953 ft | 459 kts | 47° |
| 2026-04-23 09:59 | 44.52329 | 124.04732 | 34955 ft | 459 kts | 47° |
| 2026-04-23 09:59 | 44.56461 | 124.11395 | 34950 ft | 445 kts | 31° |
| 2026-04-23 09:59 | 44.58970 | 124.13713 | 34915 ft | 433 kts | 20° |
| 2026-04-23 10:00 | 44.61683 | 124.15484 | 34535 ft | 428 kts | 16° |
| 2026-04-23 10:00 | 44.64409 | 124.17132 | 34020 ft | 426 kts | 15° |
| 2026-04-23 10:00 | 44.67122 | 124.18785 | 33375 ft | 425 kts | 16° |
| 2026-04-23 10:00 | 44.69772 | 124.20718 | 32654 ft | 436 kts | 25° |
| 2026-04-23 10:01 | 44.72193 | 124.23373 | 31940 ft | 450 kts | 37° |
| 2026-04-23 10:01 | 44.74262 | 124.26756 | 31252 ft | 462 kts | 46° |
| 2026-04-23 10:01 | 44.76161 | 124.30418 | 30609 ft | 465 kts | 48° |
| 2026-04-23 10:01 | 44.78052 | 124.34126 | 29941 ft | 467 kts | 48° |
| 2026-04-23 10:02 | 44.79936 | 124.37793 | 29188 ft | 469 kts | 48° |
| 2026-04-23 10:02 | 44.81861 | 124.41515 | 28434 ft | 469 kts | 48° |
| 2026-04-23 10:02 | 44.83773 | 124.45207 | 27702 ft | 465 kts | 48° |
| 2026-04-23 10:02 | 44.85674 | 124.48876 | 26977 ft | 461 kts | 48° |
| 2026-04-23 10:03 | 44.87559 | 124.52513 | 26285 ft | 458 kts | 49° |
| 2026-04-23 10:03 | 44.89429 | 124.56125 | 25614 ft | 455 kts | 49° |
| 2026-04-23 10:03 | 44.91284 | 124.59717 | 24946 ft | 451 kts | 49° |
| 2026-04-23 10:03 | 44.93122 | 124.63277 | 24289 ft | 447 kts | 49° |
| 2026-04-23 10:04 | 44.94915 | 124.66756 | 23671 ft | 444 kts | 50° |
| 2026-04-23 10:04 | 44.96723 | 124.70267 | 22952 ft | 441 kts | 50° |
| 2026-04-23 10:04 | 44.98514 | 124.73753 | 22210 ft | 438 kts | 50° |
| 2026-04-23 10:04 | 45.00296 | 124.77222 | 21487 ft | 435 kts | 50° |
| 2026-04-23 10:05 | 45.02067 | 124.80675 | 20777 ft | 432 kts | 50° |
| 2026-04-23 10:05 | 45.03817 | 124.84091 | 20097 ft | 429 kts | 50° |
| 2026-04-23 10:05 | 45.05562 | 124.87501 | 19411 ft | 426 kts | 50° |
| 2026-04-23 10:05 | 45.07266 | 124.90835 | 18784 ft | 422 kts | 50° |
| 2026-04-23 10:06 | 45.08982 | 124.94196 | 18125 ft | 419 kts | 51° |
| 2026-04-23 10:06 | 45.10565 | 124.97638 | 17378 ft | 419 kts | 59° |
| 2026-04-23 10:06 | 45.11616 | 125.01486 | 16665 ft | 419 kts | 74° |
| 2026-04-23 10:06 | 45.11975 | 125.05559 | 15958 ft | 418 kts | 89° |
| 2026-04-23 10:07 | 45.11630 | 125.09620 | 15269 ft | 415 kts | 104° |
| 2026-04-23 10:07 | 45.10836 | 125.13526 | 14613 ft | 411 kts | 108° |
| 2026-04-23 10:07 | 45.09987 | 125.17373 | 13950 ft | 408 kts | 108° |
| 2026-04-23 10:07 | 45.09158 | 125.21197 | 13259 ft | 405 kts | 107° |
| 2026-04-23 10:08 | 45.08357 | 125.24967 | 12825 ft | 395 kts | 107° |
| 2026-04-23 10:08 | 45.07603 | 125.28562 | 12706 ft | 381 kts | 107° |
| 2026-04-23 10:08 | 45.06848 | 125.32156 | 12604 ft | 379 kts | 107° |
| 2026-04-23 10:09 | 45.05358 | 125.39276 | 11853 ft | 374 kts | 108° |
| 2026-04-23 10:09 | 45.04620 | 125.42795 | 11360 ft | 370 kts | 108° |
| 2026-04-23 10:09 | 45.03899 | 125.46229 | 10811 ft | 358 kts | 108° |
| 2026-04-23 10:09 | 45.03198 | 125.49555 | 10297 ft | 347 kts | 107° |
| 2026-04-23 10:10 | 45.02559 | 125.52751 | 9792 ft | 338 kts | 101° |
| 2026-04-23 10:10 | 45.02500 | 125.55995 | 9243 ft | 326 kts | 77° |
| 2026-04-23 10:10 | 45.03356 | 125.58869 | 8701 ft | 313 kts | 51° |
| 2026-04-23 10:10 | 45.04924 | 125.60879 | 8246 ft | 301 kts | 32° |
| 2026-04-23 10:11 | 45.06660 | 125.62494 | 7822 ft | 296 kts | 31° |
| 2026-04-23 10:11 | 45.08340 | 125.64133 | 7397 ft | 292 kts | 33° |
| 2026-04-23 10:11 | 45.09965 | 125.65829 | 6972 ft | 288 kts | 35° |
| 2026-04-23 10:11 | 45.11540 | 125.67547 | 6558 ft | 285 kts | 36° |
| 2026-04-23 10:12 | 45.13089 | 125.69275 | 6123 ft | 281 kts | 37° |
| 2026-04-23 10:12 | 45.14607 | 125.70986 | 5712 ft | 277 kts | 39° |
| 2026-04-23 10:12 | 45.16058 | 125.72635 | 5502 ft | 264 kts | 39° |
| 2026-04-23 10:12 | 45.17471 | 125.74249 | 5437 ft | 260 kts | 40° |
| 2026-04-23 10:13 | 45.18871 | 125.75853 | 5401 ft | 258 kts | 39° |
| 2026-04-23 10:13 | 45.20264 | 125.77450 | 5375 ft | 257 kts | 39° |
| 2026-04-23 10:13 | 45.21652 | 125.79046 | 5354 ft | 255 kts | 39° |
| 2026-04-23 10:13 | 45.22988 | 125.80579 | 5314 ft | 240 kts | 39° |
| 2026-04-23 10:14 | 45.24266 | 125.82048 | 5276 ft | 235 kts | 39° |
| 2026-04-23 10:14 | 45.25534 | 125.83509 | 5244 ft | 235 kts | 39° |
| 2026-04-23 10:14 | 45.26810 | 125.84951 | 5217 ft | 235 kts | 37° |
| 2026-04-23 10:14 | 45.28127 | 125.86275 | 5199 ft | 235 kts | 35° |
| 2026-04-23 10:15 | 45.29467 | 125.87596 | 5175 ft | 235 kts | 36° |
| 2026-04-23 10:15 | 45.30812 | 125.88921 | 5151 ft | 236 kts | 36° |
| 2026-04-23 10:15 | 45.32162 | 125.90252 | 5127 ft | 237 kts | 36° |
| 2026-04-23 10:15 | 45.33514 | 125.91585 | 5092 ft | 237 kts | 37° |
| 2026-04-23 10:16 | 45.34827 | 125.92985 | 4905 ft | 235 kts | 41° |
| 2026-04-23 10:16 | 45.36087 | 125.94441 | 4607 ft | 232 kts | 40° |
| 2026-04-23 10:16 | 45.37336 | 125.95892 | 4286 ft | 232 kts | 41° |
| 2026-04-23 10:16 | 45.38559 | 125.97314 | 3967 ft | 231 kts | 41° |
| 2026-04-23 10:17 | 45.39807 | 125.98762 | 3640 ft | 230 kts | 41° |
| 2026-04-23 10:17 | 45.41045 | 126.00197 | 3343 ft | 228 kts | 42° |
| 2026-04-23 10:17 | 45.42266 | 126.01614 | 3076 ft | 225 kts | 42° |
| 2026-04-23 10:17 | 45.43459 | 126.03001 | 2950 ft | 219 kts | 42° |
| 2026-04-23 10:18 | 45.44635 | 126.04368 | 2950 ft | 218 kts | 42° |
| 2026-04-23 10:18 | 45.45812 | 126.05736 | 2968 ft | 218 kts | 42° |
| 2026-04-23 10:18 | 45.46990 | 126.07104 | 2980 ft | 219 kts | 41° |
| 2026-04-23 10:18 | 45.48172 | 126.08458 | 2985 ft | 218 kts | 42° |
| 2026-04-23 10:19 | 45.49337 | 126.09813 | 2992 ft | 219 kts | 42° |
| 2026-04-23 10:19 | 45.50468 | 126.11130 | 3031 ft | 196 kts | 43° |
| 2026-04-23 10:19 | 45.51454 | 126.12281 | 2958 ft | 172 kts | 43° |
| 2026-04-23 10:19 | 45.52307 | 126.13278 | 2810 ft | 144 kts | 43° |
| 2026-04-23 10:20 | 45.53033 | 126.14127 | 2598 ft | 131 kts | 44° |
| 2026-04-23 10:20 | 45.53733 | 126.14946 | 2427 ft | 129 kts | 44° |
| 2026-04-23 10:20 | 45.54425 | 126.15755 | 2260 ft | 128 kts | 44° |
| 2026-04-23 10:20 | 45.55115 | 126.16561 | 2082 ft | 128 kts | 44° |
| 2026-04-23 10:21 | 45.55799 | 126.17361 | 1913 ft | 127 kts | 44° |
| 2026-04-23 10:21 | 45.56482 | 126.18160 | 1741 ft | 127 kts | 44° |
| 2026-04-23 10:21 | 45.57157 | 126.18950 | 1563 ft | 128 kts | 44° |
| 2026-04-23 10:21 | 45.57845 | 126.19755 | 1382 ft | 128 kts | 43° |
| 2026-04-23 10:22 | 45.58528 | 126.20555 | 1204 ft | 126 kts | 43° |
| 2026-04-23 10:22 | 45.59213 | 126.21356 | 1021 ft | 130 kts | 41° |
| 2026-04-23 10:22 | 45.59904 | 126.22162 | 857 ft | 125 kts | 40° |
| 2026-04-23 10:22 | 45.60584 | 126.22941 | 660 ft | 126 kts | 40° |
| 2026-04-23 10:23 | 45.61257 | 126.23744 | 510 ft | 127 kts | 40° |
| 2026-04-23 10:23 | 45.61871 | 126.24461 | 465 ft | 88 kts | 40° |
| 2026-04-23 10:23 | 45.62186 | 126.24844 | 462 ft | 32 kts | 40° |
| 2026-04-23 10:23 | 45.62290 | 126.24963 | 461 ft | 18 kts | 36° |
| 2026-04-23 10:24 | 45.62442 | 126.25080 | 460 ft | 19 kts | 19° |
| 2026-04-23 10:24 | 45.62546 | 126.25115 | 460 ft | 16 kts | 11° |
| 2026-04-23 10:24 | 45.62584 | 126.25124 | 460 ft | 0 kts | 4° |
| 2026-04-23 10:24 | 45.62591 | 126.25123 | 460 ft | 3 kts | 349° |
| 2026-04-23 10:25 | 45.62621 | 126.25096 | 461 ft | 8 kts | 304° |
| 2026-04-23 10:25 | 45.62602 | 126.25012 | 461 ft | 12 kts | 224° |
| 2026-04-23 10:25 | 45.62524 | 126.24924 | 462 ft | 16 kts | 218° |
| 2026-04-23 10:25 | 45.62426 | 126.24808 | 462 ft | 20 kts | 220° |
| 2026-04-23 10:26 | 45.62310 | 126.24668 | 463 ft | 24 kts | 219° |
| 2026-04-23 10:26 | 45.62171 | 126.24503 | 465 ft | 28 kts | 220° |
| 2026-04-23 10:26 | 45.62012 | 126.24319 | 465 ft | 28 kts | 216° |
| 2026-04-23 10:26 | 45.61998 | 126.24303 | 466 ft | 1 kts | 222° |
| 2026-04-23 10:27 | 45.61968 | 126.24266 | 466 ft | 13 kts | 219° |
| 2026-04-23 10:27 | 45.61864 | 126.24149 | 467 ft | 24 kts | 220° |
| 2026-04-23 10:27 | 45.61850 | 126.24073 | 467 ft | 11 kts | 295° |
| 2026-04-23 10:27 | 45.61922 | 126.23966 | 464 ft | 6 kts | 315° |
| 2026-04-23 10:28 | 45.61954 | 126.23911 | 467 ft | 2 kts | 295° |
| 2026-04-23 10:28 | 45.61951 | 126.23871 | 468 ft | 1 kts | 186° |
| 2026-04-23 10:28 | 45.61927 | 126.23858 | 467 ft | 3 kts | 221° |
| 2026-04-23 10:28 | 45.61914 | 126.23844 | 468 ft | 3 kts | 218° |
| 2026-04-23 10:29 | 45.61914 | 126.23843 | 468 ft | 0 kts | 218° |